Sharpsburg, Ohio
Current Conditions -  °F | °C
As of 3:15 PM on Thursday 18 Dec 2014 (Local Time) from KUNI Reporting Station
Overcast Overcast  
Wind Chill: 25°   Ceiling: 2600
Heat Index: 30°   Visibility: 10mi
Dew Point: 19°   Wind: 5mph
Humidity: 65%   Direction: 280°W
Pressure: 30.21"   Gusts: NA
Location:  39.44°N, 81.91°W
Report Text: KUNI 182015Z AUTO 28004KT 10SM OVC026 M01/M07 A3021 RMK AO2 T10121070
Loading
Personal Weather Stations






























Interactive Weather Map New forecast layout! Learn more

10-Day Weather Forecast

Advertisements
Track Severe Weather on mobile